Time;durP1;ratioP1;P1;durP2;ratioP2;P2;SDS_P1;SDS_P2;PMS_P1;PMS_P2;Temp;Humidity;BMP_temperature;BMP_pressure;BME280_temperature;BME280_humidity;BME280_pressure;Samples;Min_cycle;Max_cycle;Signal;HPM_P1;HPM_P2
2023/08/04 00:00:55;;;;;;;4.22;1.88;;;;;;;15.02;100.00;101080.78;5017841;28;20056;-76
2023/08/04 00:03:20;;;;;;;4.05;2.00;;;;;;;15.03;100.00;101077.22;5035531;28;20075;-76
2023/08/04 00:05:45;;;;;;;5.10;1.80;;;;;;;15.02;100.00;101080.78;5018267;28;20032;-76
2023/08/04 00:08:11;;;;;;;6.97;2.58;;;;;;;15.02;100.00;101083.44;5035844;28;20045;-76
2023/08/04 00:10:36;;;;;;;3.10;1.73;;;;;;;15.03;100.00;101082.50;5035012;28;20045;-76
2023/08/04 00:13:01;;;;;;;8.15;2.33;;;;;;;15.04;100.00;101076.28;5035792;28;20037;-76
2023/08/04 00:15:29;;;;;;;6.75;1.92;;;;;;;15.03;100.00;101077.22;5035318;28;20341;-76
2023/08/04 00:17:54;;;;;;;3.63;1.83;;;;;;;15.04;100.00;101081.56;5035938;28;20030;-76
2023/08/04 00:20:19;;;;;;;3.35;2.08;;;;;;;15.04;100.00;101079.75;5035400;28;20441;-76
2023/08/04 00:22:45;;;;;;;4.63;1.75;;;;;;;15.05;100.00;101083.28;5035837;28;20100;-76
2023/08/04 00:25:10;;;;;;;5.72;1.70;;;;;;;15.05;100.00;101083.28;5035684;28;20375;-76
2023/08/04 00:27:36;;;;;;;7.32;2.00;;;;;;;15.05;100.00;101078.84;5035259;28;20324;-76
2023/08/04 00:30:02;;;;;;;2.05;1.60;;;;;;;15.05;100.00;101081.47;5035649;28;20105;-76
2023/08/04 00:32:27;;;;;;;2.90;2.05;;;;;;;15.07;100.00;101084.03;5017349;28;20041;-76
2023/08/04 00:34:53;;;;;;;3.35;1.70;;;;;;;15.06;100.00;101083.19;5035488;28;20033;-76
2023/08/04 00:37:18;;;;;;;5.65;2.40;;;;;;;15.06;100.00;101083.19;5035582;28;20053;-76
2023/08/04 00:39:43;;;;;;;4.88;1.80;;;;;;;15.06;100.00;101083.19;5035599;28;20040;-76
2023/08/04 00:42:09;;;;;;;5.20;2.00;;;;;;;15.08;100.00;101080.44;5017592;28;20327;-76
2023/08/04 00:44:36;;;;;;;11.27;1.90;;;;;;;15.07;100.00;101084.88;5034993;28;20056;-76
2023/08/04 00:47:01;;;;;;;3.97;1.85;;;;;;;15.07;100.00;101081.41;5035460;28;20036;-76
2023/08/04 00:49:26;;;;;;;3.90;2.22;;;;;;;15.08;100.00;101080.44;5034733;28;20038;-76
2023/08/04 00:51:52;;;;;;;4.88;1.98;;;;;;;15.07;100.00;101090.16;5035185;28;20061;-76
2023/08/04 00:54:18;;;;;;;3.00;1.75;;;;;;;15.08;100.00;101088.34;5035095;28;20037;-76
2023/08/04 00:56:44;;;;;;;3.72;1.60;;;;;;;15.07;100.00;101084.88;5035119;28;20064;-76
2023/08/04 00:59:09;;;;;;;2.58;1.70;;;;;;;15.07;100.00;101091.94;5035437;28;20107;-76
2023/08/04 01:01:34;;;;;;;4.13;1.90;;;;;;;15.08;100.00;101093.63;5034753;28;20029;-76
2023/08/04 01:04:00;;;;;;;2.33;1.52;;;;;;;15.08;100.00;101097.13;5035126;28;20088;-76
2023/08/04 01:06:36;;;;;;;2.10;1.40;;;;;;;15.09;100.00;101100.63;5034828;28;20029;-76
2023/08/04 01:09:15;;;;;;;4.75;1.95;;;;;;;15.08;100.00;101099.78;5035193;28;20352;-76
2023/08/04 01:11:51;;;;;;;8.55;1.90;;;;;;;15.08;100.00;101094.50;5034452;28;20083;-76
2023/08/04 01:14:18;;;;;;;4.90;1.70;;;;;;;15.09;100.00;101090.91;5035098;28;20021;-76
2023/08/04 01:16:44;;;;;;;4.97;1.90;;;;;;;15.09;100.00;101092.72;5035407;28;20041;-76
2023/08/04 01:19:09;;;;;;;5.05;2.17;;;;;;;15.09;100.00;101095.34;5035150;28;20033;-76
2023/08/04 01:21:42;;;;;;;2.42;2.03;;;;;;;15.09;100.00;101100.63;5034665;28;20045;-76
2023/08/04 01:24:08;;;;;;;2.72;1.60;;;;;;;15.08;100.00;101097.13;5035490;28;20036;-76
2023/08/04 01:26:37;;;;;;;6.40;2.10;;;;;;;15.09;100.00;101100.63;5034690;28;20037;-76
2023/08/04 01:29:02;;;;;;;;;;;;;;;15.08;100.00;101096.25;5035750;28;20325;-76
2023/08/04 01:31:28;;;;;;;6.22;1.73;;;;;;;15.08;100.00;101097.13;5034877;28;19913;-76
2023/08/04 01:33:54;;;;;;;4.70;1.70;;;;;;;15.08;100.00;101097.13;5035176;28;20344;-76
2023/08/04 01:36:20;;;;;;;1.98;1.38;;;;;;;15.07;100.00;101100.69;5035061;28;20033;-76
2023/08/04 01:38:45;;;;;;;5.40;2.08;;;;;;;15.07;100.00;101097.22;5035094;28;20266;-76
2023/08/04 01:41:10;;;;;;;3.33;1.92;;;;;;;15.06;100.00;101106.94;5034880;28;20048;-76
2023/08/04 01:43:36;;;;;;;3.80;1.90;;;;;;;15.07;100.00;101108.59;5034252;28;20041;-76
2023/08/04 01:46:01;;;;;;;3.30;1.80;;;;;;;15.07;100.00;101108.59;5035074;28;20041;-76
2023/08/04 01:48:27;;;;;;;1.73;1.40;;;;;;;15.07;100.00;101111.25;5034391;28;20068;-76
2023/08/04 01:50:53;;;;;;;2.95;1.63;;;;;;;15.06;100.00;101106.94;5037439;28;20044;-76
2023/08/04 01:53:18;;;;;;;2.42;1.70;;;;;;;15.07;100.00;101113.03;5038283;28;20228;-76
2023/08/04 01:55:47;;;;;;;6.78;2.13;;;;;;;15.07;100.00;101111.25;5038373;28;20037;-76
2023/08/04 01:58:12;;;;;;;9.23;1.67;;;;;;;15.06;100.00;101112.19;5038779;28;20041;-76
2023/08/04 02:00:38;;;;;;;3.63;1.88;;;;;;;15.06;100.00;101116.59;5038034;28;20041;-76
2023/08/04 02:03:03;;;;;;;5.13;1.83;;;;;;;15.06;100.00;101117.47;5038792;28;20038;-76
2023/08/04 02:05:29;;;;;;;7.13;2.13;;;;;;;15.06;100.00;101117.47;5038102;28;20037;-76
2023/08/04 02:07:54;;;;;;;5.65;2.10;;;;;;;15.06;100.00;101120.13;5038439;28;20040;-76
2023/08/04 02:10:19;;;;;;;5.05;2.00;;;;;;;15.07;100.00;101119.16;5037797;28;20079;-76
2023/08/04 02:12:45;;;;;;;3.13;1.73;;;;;;;15.06;100.00;101122.75;5038146;28;20048;-76
2023/08/04 02:15:10;;;;;;;3.40;2.25;;;;;;;15.05;100.00;101113.13;5038523;28;20018;-76
2023/08/04 02:17:36;;;;;;;6.03;2.20;;;;;;;15.06;100.00;101129.78;5037643;28;20041;-76
2023/08/04 02:20:02;;;;;;;2.78;1.98;;;;;;;15.07;100.00;101129.72;5020695;28;20244;-76
2023/08/04 02:22:27;;;;;;;4.25;2.05;;;;;;;15.06;100.00;101122.75;5037375;28;20122;-76
2023/08/04 02:24:52;;;;;;;2.25;1.50;;;;;;;15.07;100.00;101132.34;5020546;28;20018;-76
2023/08/04 02:27:18;;;;;;;5.78;1.80;;;;;;;15.06;100.00;101133.31;5037413;28;20096;-76
2023/08/04 02:29:43;;;;;;;4.20;1.95;;;;;;;15.07;100.00;101139.41;5037711;28;20336;-76
2023/08/04 02:32:10;;;;;;;4.43;1.85;;;;;;;15.06;100.00;101135.94;5037829;28;20073;-76
2023/08/04 02:34:36;;;;;;;6.32;1.85;;;;;;;15.07;100.00;101136.78;5036792;28;20394;-76
2023/08/04 02:37:01;;;;;;;2.63;1.55;;;;;;;15.06;100.00;101138.59;5018058;28;20374;-76
2023/08/04 02:39:27;;;;;;;5.03;1.63;;;;;;;15.07;100.00;101142.06;5019370;28;20049;-76
2023/08/04 02:41:53;;;;;;;2.72;1.65;;;;;;;15.05;100.00;101139.50;5037490;28;20041;-76
2023/08/04 02:44:18;;;;;;;4.53;1.85;;;;;;;15.06;100.00;101141.22;5019253;28;20029;-76
2023/08/04 02:46:45;;;;;;;3.75;1.70;;;;;;;15.07;100.00;101145.53;5037448;28;20086;-76
2023/08/04 02:49:10;;;;;;;2.78;1.55;;;;;;;15.07;100.00;101145.53;5037514;28;20068;-76
2023/08/04 02:51:35;;;;;;;4.90;2.30;;;;;;;15.08;100.00;101147.25;5036810;28;20396;-76
2023/08/04 02:54:01;;;;;;;6.22;1.95;;;;;;;15.08;100.00;101154.28;5037522;28;20037;-76
2023/08/04 02:56:27;;;;;;;2.15;1.70;;;;;;;15.08;100.00;101143.75;5036731;28;20040;-76
2023/08/04 02:58:52;;;;;;;1.80;1.65;;;;;;;15.07;100.00;101148.19;5037502;28;20120;-76
2023/08/04 03:01:17;;;;;;;1.92;1.50;;;;;;;15.07;100.00;101148.19;5035872;28;20101;-76
2023/08/04 03:03:43;;;;;;;5.30;1.70;;;;;;;15.08;100.00;101147.25;5036874;28;20044;-76
2023/08/04 03:06:09;;;;;;;2.60;1.73;;;;;;;15.08;100.00;101151.66;5037562;28;20041;-76
2023/08/04 03:08:34;;;;;;;2.03;1.88;;;;;;;15.07;100.00;101144.69;5018581;28;20030;-76
2023/08/04 03:11:00;;;;;;;3.10;1.38;;;;;;;15.07;100.00;101148.19;5037092;28;20025;-76
2023/08/04 03:13:26;;;;;;;3.60;1.65;;;;;;;15.07;100.00;101145.53;5036770;28;20360;-76
2023/08/04 03:15:57;;;;;;;3.80;1.70;;;;;;;15.06;100.00;101149.13;5019540;28;20045;-76
2023/08/04 03:18:22;;;;;;;4.82;1.60;;;;;;;15.07;100.00;101147.34;5036626;28;20067;-76
2023/08/04 03:20:48;;;;;;;2.08;1.85;;;;;;;15.07;100.00;101156.09;5036702;28;20037;-76
2023/08/04 03:23:13;;;;;;;1.67;1.50;;;;;;;15.05;100.00;101146.56;5002770;28;20348;-76
2023/08/04 03:25:39;;;;;;;2.42;1.52;;;;;;;15.05;100.00;101155.31;5036309;28;20064;-76
2023/08/04 03:28:04;;;;;;;2.05;1.55;;;;;;;15.04;100.00;101153.59;5036893;28;20236;-76
2023/08/04 03:30:30;;;;;;;4.95;1.63;;;;;;;15.05;100.00;101154.47;5036097;28;20047;-76
2023/08/04 03:32:56;;;;;;;2.15;1.70;;;;;;;15.04;100.00;101158.88;5036853;28;20112;-76
2023/08/04 03:35:21;;;;;;;1.88;1.60;;;;;;;15.04;100.00;101164.16;5018354;28;20056;-76
2023/08/04 03:37:47;;;;;;;2.38;1.40;;;;;;;15.03;100.00;101165.13;5036427;28;20224;-76
2023/08/04 03:40:14;;;;;;;5.45;1.60;;;;;;;15.04;100.00;101166.78;5036463;28;20041;-76
2023/08/04 03:42:40;;;;;;;6.07;1.73;;;;;;;15.05;100.00;101167.66;5035827;28;20029;-76
2023/08/04 03:45:06;;;;;;;2.53;1.80;;;;;;;15.04;100.00;101169.44;5018827;28;20037;-76
2023/08/04 03:47:33;;;;;;;3.08;1.98;;;;;;;15.03;100.00;101183.56;5035748;28;20287;-76
2023/08/04 03:49:58;;;;;;;3.03;2.05;;;;;;;15.03;100.00;101178.31;5036403;28;20101;-76
2023/08/04 03:52:23;;;;;;;2.50;2.03;;;;;;;15.03;100.00;101167.75;5036256;28;20091;-76
2023/08/04 03:54:49;;;;;;;2.65;1.75;;;;;;;15.05;100.00;101175.59;5036804;28;20037;-76
2023/08/04 03:57:14;;;;;;;3.25;2.03;;;;;;;15.05;100.00;101175.59;5036204;28;20355;-76
2023/08/04 03:59:39;;;;;;;3.00;2.15;;;;;;;15.05;100.00;101172.94;5017839;28;20029;-76
2023/08/04 04:02:05;;;;;;;2.15;1.90;;;;;;;15.06;100.00;101186.06;5036377;28;20067;-76
2023/08/04 04:04:31;;;;;;;1.88;1.77;;;;;;;15.05;100.00;101186.97;5035860;28;20045;-76
2023/08/04 04:06:56;;;;;;;4.53;2.08;;;;;;;15.06;100.00;101190.47;5036134;28;20029;-76
2023/08/04 04:09:22;;;;;;;2.60;1.63;;;;;;;15.05;100.00;101186.97;5035600;28;20051;-76
2023/08/04 04:11:47;;;;;;;1.75;1.65;;;;;;;15.05;100.00;101181.69;5035537;28;20336;-76
2023/08/04 04:14:13;;;;;;;3.03;1.75;;;;;;;15.07;100.00;101189.53;5036022;28;20332;-76
2023/08/04 04:16:38;;;;;;;1.95;1.83;;;;;;;15.05;100.00;101194.88;5035688;28;20355;-76
2023/08/04 04:19:03;;;;;;;1.80;1.70;;;;;;;15.07;100.00;101190.38;5036073;28;20033;-76
2023/08/04 04:21:29;;;;;;;1.83;1.67;;;;;;;15.06;100.00;101201.88;5035364;28;20029;-76
2023/08/04 04:23:54;;;;;;;2.28;1.77;;;;;;;15.07;100.00;101197.44;5036413;28;20033;-76
2023/08/04 04:26:19;;;;;;;2.63;1.83;;;;;;;15.09;100.00;101206.13;5035458;28;20040;-76
2023/08/04 04:28:45;;;;;;;4.38;1.73;;;;;;;15.07;100.00;101200.94;5035886;28;20041;-76
2023/08/04 04:31:10;;;;;;;1.90;1.63;;;;;;;15.08;100.00;101209.69;5035909;28;20104;-76
2023/08/04 04:33:35;;;;;;;4.65;1.77;;;;;;;15.08;100.00;101209.69;5035354;28;20040;-76
2023/08/04 04:36:01;;;;;;;3.72;1.75;;;;;;;15.08;100.00;101210.56;5035483;28;20037;-76
2023/08/04 04:38:28;;;;;;;5.00;2.20;;;;;;;15.09;100.00;101216.69;5035128;28;20040;-76
2023/08/04 04:41:01;;;;;;;1.65;1.52;;;;;;;15.08;100.00;101215.84;5035563;28;20221;-76
2023/08/04 04:43:27;;;;;;;1.55;1.45;;;;;;;15.09;100.00;101214.03;5035039;28;20256;-76
2023/08/04 04:45:54;;;;;;;1.75;1.65;;;;;;;15.09;100.00;101214.03;5035895;28;20029;-76
2023/08/04 04:48:20;;;;;;;1.95;1.80;;;;;;;15.09;100.00;101227.22;5035172;28;20218;-76
2023/08/04 04:50:46;;;;;;;2.60;2.20;;;;;;;15.09;100.00;101222.81;5035175;28;20036;-76
2023/08/04 04:53:12;;;;;;;2.58;1.33;;;;;;;15.10;100.00;101228.94;5035347;28;20037;-76
2023/08/04 04:55:38;;;;;;;3.00;2.05;;;;;;;15.11;100.00;101234.13;5034672;28;20279;-76
2023/08/04 04:58:03;;;;;;;2.97;1.70;;;;;;;15.11;100.00;101239.38;5035294;28;20057;-76
2023/08/04 05:00:28;;;;;;;2.33;2.08;;;;;;;15.11;100.00;101234.13;5034659;28;20055;-76
2023/08/04 05:02:54;;;;;;;4.22;2.70;;;;;;;15.12;100.00;101240.25;5035365;28;20298;-76
2023/08/04 05:05:19;;;;;;;4.22;2.67;;;;;;;15.13;100.00;101240.19;5034841;28;20041;-76
2023/08/04 05:07:45;;;;;;;3.72;2.50;;;;;;;15.13;100.00;101244.59;5017383;28;20026;-76
2023/08/04 05:10:10;;;;;;;3.25;2.20;;;;;;;15.13;100.00;101239.31;5035105;28;20045;-76
2023/08/04 05:12:36;;;;;;;2.20;2.00;;;;;;;15.14;100.00;101248.94;5034393;28;20101;-76
2023/08/04 05:15:01;;;;;;;3.17;2.20;;;;;;;15.14;100.00;101243.66;5035023;28;20048;-76
2023/08/04 05:17:26;;;;;;;4.10;2.88;;;;;;;15.14;100.00;101255.06;5034911;28;20037;-76
2023/08/04 05:19:52;;;;;;;5.63;2.95;;;;;;;15.16;100.00;101247.06;5035138;28;20075;-76
2023/08/04 05:22:17;;;;;;;5.32;2.70;;;;;;;15.16;100.00;101255.84;5034689;28;20033;-76
2023/08/04 05:24:43;;;;;;;4.22;2.67;;;;;;;15.16;100.00;101261.09;5035359;28;20056;-76
2023/08/04 05:27:08;;;;;;;4.25;3.17;;;;;;;15.18;100.00;101260.19;5039061;28;20044;-76
2023/08/04 05:29:34;;;;;;;7.13;2.70;;;;;;;15.18;100.00;101268.94;5038517;28;20033;-76
2023/08/04 05:31:59;;;;;;;4.55;3.03;;;;;;;15.19;100.00;101256.59;5039193;28;20092;-76
2023/08/04 05:34:25;;;;;;;7.63;3.28;;;;;;;15.19;100.00;101270.66;5038593;28;20037;-76
2023/08/04 05:36:50;;;;;;;3.22;2.50;;;;;;;15.21;100.00;101265.28;5038826;28;20036;-76
2023/08/04 05:39:17;;;;;;;3.05;2.40;;;;;;;15.21;100.00;101267.91;5039111;28;20041;-76
2023/08/04 05:41:44;;;;;;;2.45;2.05;;;;;;;15.22;100.00;101282.81;5018617;28;20075;-76
2023/08/04 05:44:09;;;;;;;4.90;2.65;;;;;;;15.22;100.00;101282.81;5019161;28;20045;-76
2023/08/04 05:46:35;;;;;;;5.68;2.00;;;;;;;15.22;100.00;101282.81;5018666;28;20145;-76
2023/08/04 05:49:00;;;;;;;2.85;2.00;;;;;;;15.23;100.00;101287.19;5018947;28;20053;-76
2023/08/04 05:51:26;;;;;;;5.80;2.25;;;;;;;15.23;100.00;101282.75;5018584;28;20041;-76
2023/08/04 05:53:51;;;;;;;2.25;2.05;;;;;;;15.23;100.00;101287.19;5018653;28;20036;-76
2023/08/04 05:56:17;;;;;;;2.63;1.80;;;;;;;15.23;100.00;101284.53;5018179;28;20370;-76
2023/08/04 05:58:42;;;;;;;5.70;2.00;;;;;;;15.25;100.00;101293.22;5018814;28;20044;-76
2023/08/04 06:01:07;;;;;;;5.35;1.90;;;;;;;15.24;100.00;101294.16;5018343;28;20041;-76
2023/08/04 06:03:33;;;;;;;3.67;1.95;;;;;;;15.24;100.00;101292.34;5018107;28;20034;-76
2023/08/04 06:05:58;;;;;;;3.13;1.77;;;;;;;15.24;100.00;101292.34;5035759;28;20025;-76
2023/08/04 06:08:24;;;;;;;1.90;1.50;;;;;;;15.25;100.00;101295.88;5037802;28;20391;-76
2023/08/04 06:10:49;;;;;;;2.83;1.60;;;;;;;15.26;100.00;101297.56;5037842;28;20352;-76
2023/08/04 06:13:15;;;;;;;4.70;2.10;;;;;;;15.25;100.00;101302.00;5038559;28;20060;-76
2023/08/04 06:15:40;;;;;;;2.60;2.08;;;;;;;15.27;100.00;101309.81;5037675;28;20073;-76
2023/08/04 06:18:06;;;;;;;3.20;1.73;;;;;;;15.27;100.00;101315.09;5038140;28;20363;-76
2023/08/04 06:20:32;;;;;;;3.40;1.80;;;;;;;15.28;100.00;101319.44;5037519;28;20297;-76
2023/08/04 06:22:58;;;;;;;2.60;1.63;;;;;;;15.28;100.00;101319.44;5038096;28;20357;-77
2023/08/04 06:25:23;;;;;;;3.05;1.80;;;;;;;15.28;100.00;101325.59;5037734;28;20037;-77
2023/08/04 06:27:49;;;;;;;2.10;1.90;;;;;;;15.29;100.00;101329.91;5037803;28;20029;-77
2023/08/04 06:30:15;;;;;;;4.72;2.00;;;;;;;15.30;100.00;101322.88;5038228;28;20318;-77
2023/08/04 06:32:41;;;;;;;4.68;2.33;;;;;;;15.31;100.00;101330.69;5037627;28;20100;-77
2023/08/04 06:35:07;;;;;;;5.68;1.50;;;;;;;15.31;100.00;101328.03;5037664;28;20044;-77
2023/08/04 06:37:33;;;;;;;2.03;1.50;;;;;;;15.32;100.00;101329.75;5037134;28;20037;-77
2023/08/04 06:39:58;;;;;;;3.83;1.63;;;;;;;15.33;100.00;101331.47;5037824;28;20323;-77
2023/08/04 06:42:24;;;;;;;4.35;1.98;;;;;;;15.35;100.00;101334.00;5037077;28;20061;-77
2023/08/04 06:44:49;;;;;;;8.02;1.90;;;;;;;15.36;100.00;101335.72;5019668;28;20223;-77
2023/08/04 06:47:14;;;;;;;4.53;1.73;;;;;;;15.36;100.00;101333.09;5037658;28;20029;-77
2023/08/04 06:49:41;;;;;;;4.10;1.90;;;;;;;15.38;100.00;101340.94;5037061;28;20264;-77
2023/08/04 06:52:08;;;;;;;3.72;1.70;;;;;;;15.40;100.00;101336.41;5037496;28;20037;-77
2023/08/04 06:54:33;;;;;;;3.20;1.83;;;;;;;15.40;100.00;101342.53;5036877;28;20041;-77
2023/08/04 06:56:59;;;;;;;3.45;1.90;;;;;;;15.41;100.00;101343.38;5019480;28;20142;-77
2023/08/04 06:59:24;;;;;;;3.85;2.10;;;;;;;15.43;100.00;101344.19;5037073;28;20323;-77
2023/08/04 07:01:49;;;;;;;3.60;1.77;;;;;;;15.43;100.00;101352.94;5037259;28;20136;-77
2023/08/04 07:04:15;;;;;;;10.90;2.30;;;;;;;15.45;100.00;101350.22;5037641;28;20049;-77
2023/08/04 07:06:40;;;;;;;7.72;2.75;;;;;;;15.46;100.00;101366.00;5036751;28;20331;-77
2023/08/04 07:09:06;;;;;;;2.50;1.90;;;;;;;15.46;100.00;101367.75;5037229;28;20372;-77
2023/08/04 07:11:31;;;;;;;4.97;1.67;;;;;;;15.47;100.00;101370.31;5036208;28;20040;-77
2023/08/04 07:13:57;;;;;;;6.22;2.25;;;;;;;15.48;100.00;101371.16;5037180;28;20037;-77
2023/08/04 07:16:22;;;;;;;2.08;1.42;;;;;;;15.48;100.00;101363.25;5036661;28;20034;-77
2023/08/04 07:18:48;;;;;;;5.47;1.98;;;;;;;15.48;100.00;101366.75;5036906;28;20127;-77
2023/08/04 07:21:14;;;;;;;6.60;1.95;;;;;;;15.49;100.00;101363.16;5037124;28;20033;-77
2023/08/04 07:23:40;;;;;;;4.57;2.00;;;;;;;15.51;100.00;101376.28;5036278;28;20048;-77
2023/08/04 07:26:07;;;;;;;5.90;2.20;;;;;;;15.52;100.00;101373.56;5036635;28;20108;-77
2023/08/04 07:28:33;;;;;;;5.03;1.83;;;;;;;15.53;100.00;101374.41;5036614;28;20040;-77
2023/08/04 07:31:05;;;;;;;3.55;1.92;;;;;;;15.53;100.00;101385.84;5036969;28;20064;-77
2023/08/04 07:33:31;;;;;;;7.28;1.85;;;;;;;15.53;100.00;101377.94;5036174;28;20384;-77
2023/08/04 07:35:57;;;;;;;6.00;1.90;;;;;;;15.55;100.00;101373.41;5036436;28;20264;-77
2023/08/04 07:38:23;;;;;;;9.60;2.90;;;;;;;15.57;100.00;101375.94;5036234;28;20248;-77
2023/08/04 07:40:49;;;;;;;12.85;2.40;;;;;;;15.59;100.00;101382.03;5036336;28;20320;-76
2023/08/04 07:43:14;;;;;;;4.30;2.05;;;;;;;15.61;100.00;101382.78;5036485;28;20040;-76
2023/08/04 07:45:40;;;;;;;3.70;1.55;;;;;;;15.64;100.00;101393.16;5035985;28;20037;-76
2023/08/04 07:48:06;;;;;;;6.38;2.38;;;;;;;15.66;100.00;101385.16;5035780;28;20041;-76
2023/08/04 07:50:32;;;;;;;6.55;2.13;;;;;;;15.68;100.00;101391.22;5035771;28;20048;-76
2023/08/04 07:52:57;;;;;;;5.63;1.77;;;;;;;15.70;100.00;101392.03;5036292;28;20040;-76
2023/08/04 07:55:22;;;;;;;4.50;1.65;;;;;;;15.72;100.00;101392.78;5035950;28;20096;-76
2023/08/04 07:57:48;;;;;;;3.80;1.98;;;;;;;15.76;100.00;101396.16;5035934;28;20037;-76
2023/08/04 08:00:14;;;;;;;3.65;1.90;;;;;;;15.81;100.00;101388.81;5035819;28;20122;-76
2023/08/04 08:02:39;;;;;;;4.80;2.05;;;;;;;15.83;100.00;101398.38;5035725;28;20040;-76
2023/08/04 08:05:05;;;;;;;5.00;1.65;;;;;;;15.82;100.00;101404.56;5036118;28;20056;-76
2023/08/04 08:07:30;;;;;;;3.58;1.52;;;;;;;15.83;100.00;101401.00;5035535;28;20125;-76
2023/08/04 08:09:56;;;;;;;5.88;1.90;;;;;;;15.84;100.00;101409.78;5036054;28;20069;-76
2023/08/04 08:12:21;;;;;;;10.85;2.20;;;;;;;15.83;100.00;101408.94;5035479;28;20033;-76
2023/08/04 08:14:47;;;;;;;5.68;2.20;;;;;;;15.82;100.00;101404.56;5035769;28;20033;-76
2023/08/04 08:17:12;;;;;;;9.23;1.70;;;;;;;15.82;100.00;101409.00;5035738;28;20068;-76
2023/08/04 08:19:37;;;;;;;3.15;1.30;;;;;;;15.83;100.00;101418.66;5035401;28;20037;-76
2023/08/04 08:22:03;;;;;;;5.10;1.33;;;;;;;15.83;100.00;101419.50;5035962;28;20092;-76
2023/08/04 08:24:30;;;;;;;4.45;1.60;;;;;;;15.83;100.00;101422.13;5035255;28;20025;-76
2023/08/04 08:26:56;;;;;;;4.65;1.58;;;;;;;15.86;100.00;101419.34;5035026;28;20033;-76
2023/08/04 08:29:21;;;;;;;5.22;1.70;;;;;;;15.88;100.00;101428.03;5017298;28;20049;-76
2023/08/04 08:31:47;;;;;;;3.60;1.30;;;;;;;15.90;100.00;101414.75;5035342;28;20100;-76
2023/08/04 08:34:12;;;;;;;6.85;1.85;;;;;;;15.91;100.00;101427.84;5035638;28;20029;-76
2023/08/04 08:36:37;;;;;;;4.78;1.42;;;;;;;15.91;100.00;101427.84;5035516;28;20033;-76
2023/08/04 08:39:03;;;;;;;3.25;1.70;;;;;;;15.92;100.00;101437.50;5035980;28;20040;-76
2023/08/04 08:41:28;;;;;;;3.55;1.45;;;;;;;15.93;100.00;101441.84;5034992;28;20098;-76
2023/08/04 08:43:54;;;;;;;2.55;1.25;;;;;;;15.95;100.00;101444.38;5035888;28;20208;-76
2023/08/04 08:46:20;;;;;;;1.20;1.10;;;;;;;15.97;100.00;101439.03;5035126;28;20064;-76
2023/08/04 08:48:46;;;;;;;3.65;1.20;;;;;;;15.97;100.00;101449.59;5035480;28;20145;-76
2023/08/04 08:51:16;;;;;;;6.70;1.30;;;;;;;15.97;100.00;101442.53;5035295;28;20275;-76
2023/08/04 08:53:42;;;;;;;3.17;1.65;;;;;;;15.98;100.00;101440.75;5035453;28;20029;-76
2023/08/04 08:56:09;;;;;;;2.17;1.25;;;;;;;15.99;100.00;101445.06;5035772;28;20064;-76
2023/08/04 08:58:36;;;;;;;3.92;1.25;;;;;;;16.01;100.00;101445.84;5035056;28;20076;-76
2023/08/04 09:01:01;;;;;;;4.00;1.65;;;;;;;16.01;99.90;101444.06;5035440;28;20202;-76
2023/08/04 09:03:27;;;;;;;3.85;1.20;;;;;;;16.04;98.01;101445.69;5034992;28;20285;-76
2023/08/04 09:05:53;;;;;;;6.45;1.17;;;;;;;16.07;98.21;101450.81;5035402;28;20040;-76
2023/08/04 09:08:18;;;;;;;2.00;1.20;;;;;;;16.10;97.83;101451.50;5034847;28;20101;-76
2023/08/04 09:10:44;;;;;;;2.40;1.17;;;;;;;16.13;97.78;101450.47;5034791;28;20057;-76
2023/08/04 09:13:11;;;;;;;2.35;0.90;;;;;;;16.18;97.78;101455.53;5035083;28;20034;-76
2023/08/04 09:15:48;;;;;;;1.55;0.95;;;;;;;16.21;97.50;101455.31;5034925;28;20060;-76
2023/08/04 09:18:38;;;;;;;3.15;1.10;;;;;;;16.25;97.69;101460.38;5035396;28;20088;-76
2023/08/04 09:21:07;;;;;;;4.45;1.02;;;;;;;16.25;96.71;101457.72;5035265;28;20033;-76
2023/08/04 09:23:35;;;;;;;4.07;1.20;;;;;;;16.28;96.64;101467.28;5034773;28;20340;-76
2023/08/04 09:26:00;;;;;;;5.90;1.15;;;;;;;16.29;97.17;101469.00;5035085;28;20013;-76
2023/08/04 09:28:27;;;;;;;1.33;0.90;;;;;;;16.29;97.17;101472.47;5034694;28;20193;-76
2023/08/04 09:31:03;;;;;;;6.30;1.42;;;;;;;16.29;97.57;101474.28;5035184;28;20293;-76
2023/08/04 09:33:29;;;;;;;1.75;0.90;;;;;;;16.28;97.77;101475.19;5034746;28;20069;-76
2023/08/04 09:36:05;;;;;;;3.00;1.30;;;;;;;16.28;97.74;101478.72;5034996;28;20212;-76
2023/08/04 09:38:31;;;;;;;1.55;0.88;;;;;;;16.28;97.68;101469.91;5034610;28;20040;-76
2023/08/04 09:41:05;;;;;;;4.00;0.90;;;;;;;16.29;98.13;101469.84;5035142;28;20029;-76
2023/08/04 09:43:31;;;;;;;3.25;1.23;;;;;;;16.30;97.29;101471.56;5034712;28;20033;-76
2023/08/04 09:45:58;;;;;;;2.15;0.98;;;;;;;16.33;96.92;101482.91;5035284;28;20355;-76
2023/08/04 09:48:26;;;;;;;3.83;1.15;;;;;;;16.34;96.69;101471.41;5034645;28;20254;-76
2023/08/04 09:51:23;;;;;;;1.75;1.00;;;;;;;16.34;96.76;101482.81;5035149;28;20029;-76
2023/08/04 09:53:51;;;;;;;1.48;1.00;;;;;;;16.36;97.11;101483.56;5034153;28;20309;-76
2023/08/04 09:56:20;;;;;;;5.35;1.38;;;;;;;16.38;97.56;101483.50;5034601;28;20061;-76
2023/08/04 09:58:47;;;;;;;2.55;0.93;;;;;;;16.38;97.83;101491.44;5034941;28;20041;-76
2023/08/04 10:01:14;;;;;;;2.05;1.20;;;;;;;16.39;97.79;101490.47;5035093;28;20029;-76
2023/08/04 10:03:42;;;;;;;5.47;1.17;;;;;;;16.40;98.07;101479.81;5034507;28;20029;-77
2023/08/04 10:06:09;;;;;;;1.95;0.80;;;;;;;16.43;97.55;101482.31;5034827;28;20106;-76
2023/08/04 10:08:36;;;;;;;3.78;1.08;;;;;;;16.47;97.71;101488.28;5034423;28;20115;-76
2023/08/04 10:11:02;;;;;;;4.10;1.17;;;;;;;16.49;97.47;101479.31;5035950;28;20104;-76
2023/08/04 10:13:32;;;;;;;4.68;1.05;;;;;;;16.53;97.35;101481.78;5037619;28;20021;-76
2023/08/04 10:16:00;;;;;;;1.58;0.90;;;;;;;16.55;96.32;101486.03;5038253;28;20033;-76
2023/08/04 10:18:26;;;;;;;2.25;0.90;;;;;;;16.57;96.26;101489.50;5038222;28;20554;-76
2023/08/04 10:20:52;;;;;;;1.55;0.68;;;;;;;16.59;94.54;101492.91;5038231;28;20025;-76
2023/08/04 10:23:18;;;;;;;1.25;0.70;;;;;;;16.61;94.38;101492.81;5037838;28;20036;-76
2023/08/04 10:25:55;;;;;;;1.90;0.80;;;;;;;16.63;95.06;101496.22;5038054;28;20512;-76
2023/08/04 10:28:21;;;;;;;1.23;0.70;;;;;;;16.65;95.30;101487.25;5037460;28;20105;-76
2023/08/04 10:30:46;;;;;;;3.47;0.90;;;;;;;16.66;94.91;101496.91;5037928;28;20029;-76
2023/08/04 10:33:12;;;;;;;3.80;0.90;;;;;;;16.68;94.83;101491.50;5037949;28;20056;-76
2023/08/04 10:36:12;;;;;;;1.35;0.50;;;;;;;16.72;94.44;101497.47;5037316;28;20097;-77
2023/08/04 10:38:47;;;;;;;3.45;1.00;;;;;;;16.72;94.91;101503.63;5026341;28;20446;-77
2023/08/04 10:41:13;;;;;;;1.05;0.70;;;;;;;16.75;95.15;101506.09;5037626;28;20025;-77
2023/08/04 10:43:39;;;;;;;1.77;0.77;;;;;;;16.77;94.42;101500.72;5037170;28;20052;-77
2023/08/04 10:46:10;;;;;;;2.08;0.82;;;;;;;16.78;94.23;101513.03;5037611;28;20063;-76
2023/08/04 10:48:39;;;;;;;1.63;0.70;;;;;;;16.79;94.61;101505.00;5037169;28;20795;-76
2023/08/04 10:51:08;;;;;;;3.40;0.70;;;;;;;16.80;94.39;101503.19;5019967;28;20097;-76
2023/08/04 10:53:35;;;;;;;1.00;0.90;;;;;;;16.81;94.40;101507.56;5037266;28;20035;-76
2023/08/04 10:56:01;;;;;;;3.25;1.23;;;;;;;16.82;94.60;101509.25;5037593;28;20037;-76
2023/08/04 10:58:28;;;;;;;1.63;0.80;;;;;;;16.81;94.09;101507.56;5037202;28;20364;-76
2023/08/04 11:00:55;;;;;;;2.92;0.90;;;;;;;16.81;94.08;101512.84;5037684;28;20025;-76
2023/08/04 11:03:29;;;;;;;3.42;1.23;;;;;;;16.82;93.88;101511.91;5037478;28;20657;-76
2023/08/04 11:05:55;;;;;;;2.15;0.60;;;;;;;16.81;93.79;101512.84;5037652;28;20025;-76
2023/08/04 11:08:22;;;;;;;1.30;0.65;;;;;;;16.83;93.18;101508.38;5018814;28;20128;-76
2023/08/04 11:10:56;;;;;;;5.93;1.20;;;;;;;16.83;93.24;101516.28;5036566;28;20367;-76
2023/08/04 11:13:23;;;;;;;0.88;0.75;;;;;;;16.85;93.45;101519.69;5036522;28;20040;-76
2023/08/04 11:15:50;;;;;;;1.40;0.80;;;;;;;16.86;93.69;101516.97;5036975;28;20040;-76